Coniston, Canada
Current Conditions -  °F | °C
As of 3:00 AM on Thursday 18 Dec 2014 (Local Time) from CYSB Reporting Station
Light Snow Light Snow  
Wind Chill: -2°   Ceiling: 1300
Heat Index: 14°   Visibility: 15mi
Dew Point: 10°   Wind: 16mph
Humidity: 86%   Direction: 360°N
Pressure: 30.03"   Gusts: NA
Location:  46.49°N, 80.85°W
Report Text: CYSB 180800Z 36014KT 15SM -SN DRSA BKN013 OVC062 M10/M12 A3003 RMK SC7SC1 SLP193
Loading
Personal Weather Stations






























Interactive Weather Map New forecast layout! Learn more

10-Day Weather Forecast

Advertisements
Track Severe Weather on mobile